createdAt,value
2023-04-28T00:01:45.516Z,33.15
2023-04-28T00:04:13.002Z,26.77
2023-04-28T00:06:40.127Z,27.55
2023-04-28T00:09:11.198Z,25.38
2023-04-28T00:11:38.651Z,23.85
2023-04-28T00:14:06.318Z,25.63
2023-04-28T00:16:33.301Z,29.80
2023-04-28T00:19:00.403Z,33.90
2023-04-28T00:21:28.639Z,30.73
2023-04-28T00:23:55.961Z,32.88
2023-04-28T00:26:22.742Z,25.55
2023-04-28T00:28:50.002Z,27.27
2023-04-28T00:31:17.111Z,30.33
2023-04-28T00:33:44.949Z,35.28
2023-04-28T00:36:11.760Z,39.65
2023-04-28T00:38:40.246Z,31.25
2023-04-28T00:41:07.351Z,31.50
2023-04-28T00:43:47.574Z,31.90
2023-04-28T00:46:22.464Z,28.40
2023-04-28T00:48:50.510Z,28.58
2023-04-28T00:51:17.686Z,29.42
2023-04-28T00:53:45.407Z,30.33
2023-04-28T00:56:13.043Z,34.53
2023-04-28T00:58:40.513Z,31.42
2023-04-28T01:01:09.939Z,29.70
2023-04-28T01:03:39.681Z,35.03
2023-04-28T01:06:08.240Z,39.35
2023-04-28T01:08:36.808Z,33.83
2023-04-28T01:11:03.760Z,33.60
2023-04-28T01:13:30.825Z,29.67
2023-04-28T01:15:57.806Z,31.67
2023-04-28T01:18:25.851Z,41.17
2023-04-28T01:20:52.653Z,31.50
2023-04-28T01:23:19.780Z,35.00
2023-04-28T01:25:46.507Z,42.17
2023-04-28T01:28:13.491Z,40.08
2023-04-28T01:30:40.233Z,41.15
2023-04-28T01:33:07.483Z,38.78
2023-04-28T01:35:34.292Z,37.85
2023-04-28T01:38:01.446Z,35.00
2023-04-28T01:40:28.378Z,41.60
2023-04-28T01:42:55.340Z,34.55
2023-04-28T01:45:22.140Z,37.03
2023-04-28T01:47:49.399Z,32.30
2023-04-28T01:50:16.240Z,37.00
2023-04-28T01:52:43.383Z,30.52
2023-04-28T01:55:10.186Z,34.55
2023-04-28T01:57:37.220Z,31.92
2023-04-28T02:00:05.171Z,30.73
2023-04-28T02:02:32.490Z,30.25
2023-04-28T02:04:59.682Z,31.90
2023-04-28T02:07:27.124Z,35.45
2023-04-28T02:09:54.026Z,37.40
2023-04-28T02:12:20.994Z,42.30
2023-04-28T02:14:47.719Z,48.58
2023-04-28T02:17:14.732Z,35.33
2023-04-28T02:19:41.650Z,37.58
2023-04-28T02:22:08.682Z,38.22
2023-04-28T02:24:37.234Z,38.08
2023-04-28T02:27:05.749Z,37.03
2023-04-28T02:29:32.579Z,41.65
2023-04-28T02:31:59.658Z,41.15
2023-04-28T02:34:26.411Z,38.45
2023-04-28T02:36:53.667Z,41.33
2023-04-28T02:39:22.063Z,36.85
2023-04-28T02:41:49.034Z,43.95
2023-04-28T02:44:16.131Z,36.78
2023-04-28T02:46:43.521Z,35.88
2023-04-28T02:49:10.285Z,43.85
2023-04-28T02:51:37.341Z,42.63
2023-04-28T02:54:04.686Z,48.60
2023-04-28T02:56:31.781Z,47.13
2023-04-28T02:58:58.621Z,46.25
2023-04-28T03:01:26.251Z,48.03
2023-04-28T03:03:53.266Z,44.30
2023-04-28T03:06:20.353Z,45.83
2023-04-28T03:08:47.284Z,44.67
2023-04-28T03:11:14.402Z,45.25
2023-04-28T03:13:41.632Z,46.35
2023-04-28T03:16:08.758Z,47.85
2023-04-28T03:18:36.015Z,52.33
2023-04-28T03:21:03.095Z,51.80
2023-04-28T03:23:29.960Z,51.72
2023-04-28T03:25:56.930Z,53.28
2023-04-28T03:28:23.591Z,52.22
2023-04-28T03:30:50.677Z,53.10
2023-04-28T03:33:17.369Z,49.80
2023-04-28T03:35:44.350Z,50.08
2023-04-28T03:38:11.154Z,54.90
2023-04-28T03:40:38.345Z,54.58
2023-04-28T03:43:05.146Z,57.20
2023-04-28T03:45:32.365Z,53.70
2023-04-28T03:47:59.333Z,54.75
2023-04-28T03:50:26.843Z,55.30
2023-04-28T03:52:53.753Z,54.38
2023-04-28T03:55:20.821Z,55.05
2023-04-28T03:57:47.992Z,59.00
2023-04-28T04:00:15.425Z,55.75
2023-04-28T04:02:42.708Z,60.88
2023-04-28T04:05:10.260Z,60.03
2023-04-28T04:07:37.377Z,59.08
2023-04-28T04:10:04.916Z,54.95
2023-04-28T04:12:32.182Z,58.58
2023-04-28T04:14:59.365Z,57.28
2023-04-28T04:17:26.551Z,55.28
2023-04-28T04:19:53.727Z,46.42
2023-04-28T04:22:20.527Z,45.05
2023-04-28T04:24:47.509Z,44.15
2023-04-28T04:27:14.313Z,49.17
2023-04-28T04:29:42.245Z,51.50
2023-04-28T04:32:09.067Z,49.88
2023-04-28T04:34:36.065Z,46.85
2023-04-28T04:37:03.004Z,41.65
2023-04-28T04:39:30.064Z,44.92
2023-04-28T04:41:56.722Z,44.05
2023-04-28T04:44:23.777Z,40.35
2023-04-28T04:46:50.611Z,37.38
2023-04-28T04:49:18.003Z,37.22
2023-04-28T04:51:44.824Z,37.63
2023-04-28T04:54:11.816Z,39.28
2023-04-28T04:56:38.677Z,42.83
2023-04-28T04:59:05.788Z,41.42
2023-04-28T05:01:32.667Z,33.88
2023-04-28T05:04:00.056Z,35.55
2023-04-28T05:06:27.033Z,39.05
2023-04-28T05:08:54.018Z,37.28
2023-04-28T05:11:20.875Z,40.42
2023-04-28T05:13:47.814Z,32.45
2023-04-28T05:16:14.934Z,35.33
2023-04-28T05:18:42.116Z,35.33
2023-04-28T05:21:11.745Z,33.47
2023-04-28T05:23:38.864Z,34.45
2023-04-28T05:26:05.580Z,30.67
2023-04-28T05:28:33.108Z,32.67
2023-04-28T05:30:59.930Z,43.97
2023-04-28T05:33:33.364Z,44.67
2023-04-28T05:36:00.163Z,44.75
2023-04-28T05:38:27.427Z,35.20
2023-04-28T05:40:54.567Z,34.90
2023-04-28T05:43:21.613Z,25.58
2023-04-28T05:45:48.427Z,32.65
2023-04-28T05:48:16.344Z,32.67
2023-04-28T05:50:43.076Z,31.73
2023-04-28T05:53:10.209Z,31.98
2023-04-28T05:55:37.176Z,29.35
2023-04-28T05:58:04.319Z,28.30
2023-04-28T06:00:31.571Z,30.30
2023-04-28T06:02:58.816Z,30.50
2023-04-28T06:05:26.260Z,28.90
2023-04-28T06:07:56.215Z,29.10
2023-04-28T06:10:23.767Z,33.50
2023-04-28T06:12:54.230Z,28.20
2023-04-28T06:15:21.326Z,30.25
2023-04-28T06:17:48.729Z,24.83
2023-04-28T06:20:16.581Z,30.88
2023-04-28T06:22:43.641Z,31.30
2023-04-28T06:25:10.505Z,30.20
2023-04-28T06:27:37.682Z,28.38
2023-04-28T06:30:04.998Z,26.50
2023-04-28T06:32:32.708Z,27.23
2023-04-28T06:34:59.502Z,21.50
2023-04-28T06:37:26.982Z,23.38
2023-04-28T06:39:53.759Z,25.40
2023-04-28T06:42:20.877Z,26.17
2023-04-28T06:44:47.604Z,22.42
2023-04-28T06:47:14.705Z,25.58
2023-04-28T06:49:43.950Z,22.15
2023-04-28T06:52:10.981Z,22.25
2023-04-28T06:54:38.685Z,23.88
2023-04-28T07:06:44.709Z,20.80
2023-04-28T07:09:11.801Z,15.15
2023-04-28T07:11:47.434Z,15.23
2023-04-28T07:14:14.627Z,18.23
2023-04-28T07:16:41.632Z,14.25
2023-04-28T07:19:08.872Z,14.25
2023-04-28T07:21:35.674Z,15.07
2023-04-28T07:24:02.713Z,16.60
2023-04-28T07:26:29.612Z,16.15
2023-04-28T07:28:56.993Z,16.15
2023-04-28T07:31:23.992Z,13.73
2023-04-28T07:33:51.688Z,15.75
2023-04-28T07:36:18.749Z,15.00
2023-04-28T07:38:46.002Z,18.10
2023-04-28T07:41:13.208Z,11.70
2023-04-28T07:43:40.979Z,10.63
2023-04-28T07:46:09.061Z,10.20
2023-04-28T07:48:36.683Z,9.90
2023-04-28T07:51:03.579Z,9.43
2023-04-28T07:53:31.016Z,13.65
2023-04-28T07:55:57.785Z,9.57
2023-04-28T07:58:24.906Z,13.88
2023-04-28T08:00:51.747Z,11.07
2023-04-28T08:03:19.246Z,10.38
2023-04-28T08:05:46.677Z,10.93
2023-04-28T08:08:13.861Z,10.07
2023-04-28T08:10:42.268Z,12.25
2023-04-28T08:13:09.273Z,9.88
2023-04-28T08:15:36.599Z,8.77
2023-04-28T08:18:03.823Z,10.30
2023-04-28T08:20:32.559Z,11.05
2023-04-28T08:22:59.766Z,10.85
2023-04-28T08:25:26.580Z,10.40
2023-04-28T08:27:54.441Z,8.43
2023-04-28T08:30:22.852Z,10.35
2023-04-28T08:32:49.799Z,9.27
2023-04-28T08:35:17.435Z,10.63
2023-04-28T08:37:44.489Z,9.85
2023-04-28T08:40:11.893Z,11.48
2023-04-28T08:42:38.625Z,15.00
2023-04-28T08:45:13.940Z,8.57
2023-04-28T08:47:46.048Z,10.80
2023-04-28T08:50:14.318Z,9.32
2023-04-28T08:52:42.617Z,9.02
2023-04-28T08:55:11.650Z,8.32
2023-04-28T08:57:43.139Z,7.95
2023-04-28T09:00:15.677Z,11.38
2023-04-28T09:02:42.907Z,8.15
2023-04-28T09:05:12.287Z,10.02
2023-04-28T09:07:41.513Z,9.32
2023-04-28T09:10:23.374Z,7.32
2023-04-28T09:12:55.214Z,9.88
2023-04-28T09:15:34.093Z,7.82
2023-04-28T09:18:02.750Z,9.65
2023-04-28T09:20:31.845Z,9.00
2023-04-28T09:23:22.480Z,8.05
2023-04-28T09:26:08.121Z,9.65
2023-04-28T09:28:36.232Z,9.50
2023-04-28T09:31:04.146Z,7.72
2023-04-28T09:33:30.899Z,6.78
2023-04-28T09:35:58.103Z,8.52
2023-04-28T09:38:25.521Z,9.65
2023-04-28T09:40:58.390Z,12.77
2023-04-28T09:43:28.277Z,7.80
2023-04-28T09:45:58.764Z,7.80
2023-04-28T09:48:40.698Z,7.25
2023-04-28T09:51:09.111Z,10.88
2023-04-28T09:53:45.540Z,8.75
2023-04-28T09:56:12.843Z,9.18
2023-04-28T09:58:42.590Z,9.57
2023-04-28T10:01:11.778Z,7.40
2023-04-28T10:03:40.609Z,9.70
2023-04-28T10:06:08.629Z,9.38
2023-04-28T10:08:36.078Z,11.38
2023-04-28T10:11:03.713Z,10.70
2023-04-28T10:13:31.116Z,10.48
2023-04-28T10:15:58.798Z,8.95
2023-04-28T10:18:26.046Z,9.02
2023-04-28T10:21:00.017Z,12.05
2023-04-28T10:23:48.163Z,10.02
2023-04-28T10:26:20.022Z,10.68
2023-04-28T10:28:51.406Z,10.50
2023-04-28T10:31:23.439Z,8.75
2023-04-28T10:33:50.353Z,11.45
2023-04-28T10:36:55.848Z,10.50
2023-04-28T10:39:22.673Z,10.15
2023-04-28T10:41:49.800Z,8.82
2023-04-28T10:44:36.854Z,9.30
2023-04-28T10:47:09.574Z,9.30
2023-04-28T10:49:55.548Z,8.40
2023-04-28T10:52:40.965Z,11.80
2023-04-28T10:55:40.262Z,9.48
2023-04-28T10:58:16.889Z,8.23
2023-04-28T11:00:45.540Z,10.02
2023-04-28T11:03:46.783Z,10.43
2023-04-28T11:06:35.741Z,8.23
2023-04-28T11:09:04.195Z,7.05
2023-04-28T11:11:34.989Z,9.52
2023-04-28T11:14:22.437Z,14.48
2023-04-28T11:16:53.824Z,7.60
2023-04-28T11:19:26.967Z,7.80
2023-04-28T11:21:56.858Z,7.90
2023-04-28T11:24:47.783Z,7.53
2023-04-28T11:27:24.773Z,9.40
2023-04-28T11:29:52.059Z,6.18
2023-04-28T11:32:27.654Z,8.05
2023-04-28T11:34:54.812Z,11.10
2023-04-28T11:37:22.945Z,7.15
2023-04-28T11:39:50.341Z,7.60
2023-04-28T11:42:20.003Z,6.35
2023-04-28T11:44:54.487Z,9.63
2023-04-28T11:47:34.841Z,9.57
2023-04-28T11:50:03.331Z,9.90
2023-04-28T11:52:30.524Z,7.35
2023-04-28T11:55:00.422Z,8.82
2023-04-28T11:57:28.196Z,10.68
2023-04-28T12:00:19.811Z,9.52
2023-04-28T12:02:47.103Z,6.68
2023-04-28T12:05:14.769Z,7.68
2023-04-28T12:07:45.686Z,9.27
2023-04-28T12:10:18.868Z,13.80
2023-04-28T12:12:52.030Z,7.85
2023-04-28T12:15:22.425Z,8.00
2023-04-28T12:17:50.837Z,9.00
2023-04-28T12:20:35.500Z,9.40
2023-04-28T12:23:02.925Z,7.55
2023-04-28T12:25:30.110Z,6.82
2023-04-28T12:28:15.367Z,11.70
2023-04-28T12:30:43.584Z,7.00
2023-04-28T12:33:31.363Z,8.05
2023-04-28T12:35:58.947Z,5.43
2023-04-28T12:38:27.262Z,7.50
2023-04-28T12:40:55.064Z,8.60
2023-04-28T12:43:23.766Z,7.65
2023-04-28T12:45:53.303Z,7.63
2023-04-28T12:48:21.136Z,7.35
2023-04-28T12:50:48.056Z,8.20
2023-04-28T12:53:14.881Z,6.22
2023-04-28T12:55:42.178Z,5.40
2023-04-28T12:58:08.951Z,8.00
2023-04-28T13:00:36.096Z,6.88
2023-04-28T13:03:03.201Z,7.25
2023-04-28T13:05:32.308Z,7.32
2023-04-28T13:07:59.683Z,8.30
2023-04-28T13:10:26.907Z,7.22
2023-04-28T13:12:53.630Z,6.50
2023-04-28T13:15:41.092Z,8.77
2023-04-28T13:18:08.145Z,6.97
2023-04-28T13:20:35.232Z,8.05
2023-04-28T13:23:02.148Z,6.15
2023-04-28T13:25:37.785Z,9.07
2023-04-28T13:28:04.553Z,8.48
2023-04-28T13:30:31.713Z,7.57
2023-04-28T13:32:59.108Z,6.15
2023-04-28T13:35:26.408Z,7.07
2023-04-28T13:37:56.375Z,8.32
2023-04-28T13:40:23.465Z,8.43
2023-04-28T13:42:50.272Z,6.10
2023-04-28T13:45:18.213Z,6.70
2023-04-28T13:47:45.724Z,6.35
2023-04-28T13:50:12.816Z,6.45
2023-04-28T13:52:39.586Z,5.57
2023-04-28T13:55:07.018Z,5.13
2023-04-28T13:57:33.884Z,7.85
2023-04-28T14:00:01.242Z,4.90
2023-04-28T14:02:28.235Z,7.15
2023-04-28T14:04:55.442Z,7.22
2023-04-28T14:07:22.376Z,6.75
2023-04-28T14:09:57.864Z,6.78
2023-04-28T14:12:25.006Z,8.85
2023-04-28T14:14:51.907Z,5.88
2023-04-28T14:17:18.815Z,6.38
2023-04-28T14:19:46.823Z,8.48
2023-04-28T14:22:13.752Z,7.15
2023-04-28T14:24:43.091Z,8.02
2023-04-28T14:27:11.229Z,6.70
2023-04-28T14:29:38.548Z,5.70
2023-04-28T14:32:05.573Z,5.57
2023-04-28T14:34:32.627Z,7.03
2023-04-28T14:36:59.439Z,5.95
2023-04-28T14:39:26.582Z,5.40
2023-04-28T14:41:53.529Z,5.25
2023-04-28T14:44:20.754Z,5.20
2023-04-28T14:46:47.623Z,5.95
2023-04-28T14:49:14.922Z,7.57
2023-04-28T14:51:41.704Z,6.43
2023-04-28T14:54:09.382Z,8.18
2023-04-28T14:56:36.143Z,7.82
2023-04-28T14:59:03.432Z,7.65
2023-04-28T15:01:30.835Z,6.95
2023-04-28T15:03:58.674Z,6.68
2023-04-28T15:06:25.624Z,7.30
2023-04-28T15:08:53.342Z,5.45
2023-04-28T15:11:20.060Z,5.82
2023-04-28T15:13:50.619Z,9.32
2023-04-28T15:16:17.543Z,8.13
2023-04-28T15:18:46.427Z,5.72
2023-04-28T15:21:13.334Z,8.20
2023-04-28T15:23:40.666Z,11.77
2023-04-28T15:26:08.182Z,7.43
2023-04-28T15:28:35.332Z,7.38
2023-04-28T15:31:02.368Z,7.07
2023-04-28T15:33:29.425Z,7.88
2023-04-28T15:35:56.478Z,6.93
2023-04-28T15:38:23.455Z,7.05
2023-04-28T15:40:50.215Z,5.97
2023-04-28T15:43:17.302Z,5.63
2023-04-28T15:45:46.992Z,8.73
2023-04-28T15:48:15.308Z,6.05
2023-04-28T15:50:42.929Z,6.10
2023-04-28T15:53:10.021Z,9.00
2023-04-28T15:55:37.002Z,7.95
2023-04-28T15:58:04.207Z,7.38
2023-04-28T16:00:31.659Z,9.90
2023-04-28T16:03:00.552Z,8.90
2023-04-28T16:05:27.642Z,7.55
2023-04-28T16:07:55.145Z,6.72
2023-04-28T16:10:22.496Z,8.55
2023-04-28T16:12:49.544Z,6.28
2023-04-28T16:15:16.800Z,6.60
2023-04-28T16:17:44.508Z,7.95
2023-04-28T16:20:12.150Z,8.48
2023-04-28T16:22:41.299Z,9.32
2023-04-28T16:25:09.319Z,5.60
2023-04-28T16:27:37.917Z,8.13
2023-04-28T16:30:08.827Z,9.63
2023-04-28T16:32:40.950Z,8.25
2023-04-28T16:35:14.480Z,6.85
2023-04-28T16:37:43.362Z,7.38
2023-04-28T16:40:12.318Z,6.85
2023-04-28T16:42:39.582Z,9.70
2023-04-28T16:45:06.877Z,10.38
2023-04-28T16:47:34.237Z,8.52
2023-04-28T16:50:01.437Z,6.32
2023-04-28T16:52:28.681Z,8.82
2023-04-28T16:54:55.623Z,8.50
2023-04-28T16:57:22.740Z,10.23
2023-04-28T16:59:51.046Z,8.30
2023-04-28T17:02:18.435Z,8.38
2023-04-28T17:04:45.450Z,7.57
2023-04-28T17:07:12.779Z,8.32
2023-04-28T17:09:39.700Z,12.98
2023-04-28T17:12:06.961Z,9.05
2023-04-28T17:14:33.876Z,9.93
2023-04-28T17:17:01.231Z,11.20
2023-04-28T17:19:28.198Z,14.90
2023-04-28T17:21:55.840Z,15.43
2023-04-28T17:24:23.632Z,13.35
2023-04-28T17:26:51.201Z,10.93
2023-04-28T17:29:18.511Z,10.10
2023-04-28T17:31:46.880Z,13.68
2023-04-28T17:34:14.054Z,11.63
2023-04-28T17:36:41.323Z,8.85
2023-04-28T17:39:09.407Z,10.23
2023-04-28T17:41:36.628Z,12.15
2023-04-28T17:44:03.360Z,11.57
2023-04-28T17:46:30.470Z,8.98
2023-04-28T17:48:57.264Z,10.10
2023-04-28T17:51:24.279Z,11.43
2023-04-28T17:53:51.363Z,11.70
2023-04-28T17:56:18.408Z,12.57
2023-04-28T17:58:45.104Z,11.35
2023-04-28T18:01:12.249Z,16.67
2023-04-28T18:03:39.722Z,11.35
2023-04-28T18:06:08.242Z,17.38
2023-04-28T18:08:36.878Z,16.40
2023-04-28T18:11:05.044Z,16.30
2023-04-28T18:13:33.328Z,16.27
2023-04-28T18:16:01.197Z,15.57
2023-04-28T18:18:30.229Z,19.95
2023-04-28T18:20:59.266Z,13.55
2023-04-28T18:23:27.107Z,20.08
2023-04-28T18:25:54.196Z,17.02
2023-04-28T18:28:21.345Z,8.98
2023-04-28T18:30:48.646Z,8.07
2023-04-28T18:33:19.513Z,10.48
2023-04-28T18:35:48.524Z,10.20
2023-04-28T18:38:15.365Z,12.57
2023-04-28T18:40:42.666Z,14.55
2023-04-28T18:43:13.345Z,11.55
2023-04-28T18:48:11.643Z,11.98
2023-04-28T18:50:38.893Z,13.55
2023-04-28T18:53:08.523Z,20.70
2023-04-28T18:55:35.627Z,16.17
2023-04-28T18:58:02.666Z,13.98
2023-04-28T19:00:30.561Z,15.73
2023-04-28T19:02:57.571Z,14.43
2023-04-28T19:05:25.902Z,16.88
2023-04-28T19:07:52.824Z,17.83
2023-04-28T19:10:19.869Z,13.93
2023-04-28T19:12:46.925Z,15.93
2023-04-28T19:15:14.013Z,15.48
2023-04-28T19:17:40.897Z,18.00
2023-04-28T19:20:08.866Z,15.68
2023-04-28T19:22:37.549Z,18.05
2023-04-28T19:25:05.518Z,17.67
2023-04-28T19:27:34.408Z,17.15
2023-04-28T19:30:02.476Z,20.63
2023-04-28T19:32:30.756Z,20.00
2023-04-28T19:34:57.981Z,21.58
2023-04-28T19:37:25.613Z,30.38
2023-04-28T19:39:52.841Z,30.95
2023-04-28T19:42:19.740Z,34.03
2023-04-28T19:44:48.423Z,43.08
2023-04-28T19:47:26.492Z,63.67
2023-04-28T19:49:53.923Z,73.70
2023-04-28T19:52:21.919Z,67.55
2023-04-28T19:54:49.772Z,72.30
2023-04-28T19:57:18.792Z,59.05
2023-04-28T19:59:49.873Z,39.58
2023-04-28T20:02:17.419Z,38.15
2023-04-28T20:04:44.877Z,30.90
2023-04-28T20:07:12.163Z,29.38
2023-04-28T20:09:39.510Z,23.30
2023-04-28T20:12:09.590Z,28.40
2023-04-28T20:14:37.623Z,22.02
2023-04-28T20:17:05.568Z,22.20
2023-04-28T20:19:32.985Z,24.42
2023-04-28T20:22:06.656Z,16.88
2023-04-28T20:24:51.338Z,18.52
2023-04-28T20:27:18.136Z,15.75
2023-04-28T20:29:46.381Z,24.42
2023-04-28T20:32:13.306Z,33.05
2023-04-28T20:34:41.425Z,30.98
2023-04-28T20:37:08.287Z,32.72
2023-04-28T20:39:35.323Z,32.03
2023-04-28T20:42:02.845Z,29.80
2023-04-28T20:44:29.878Z,33.22
2023-04-28T20:46:57.300Z,31.63
2023-04-28T20:49:24.580Z,30.65
2023-04-28T20:51:51.421Z,28.50
2023-04-28T20:54:18.546Z,25.20
2023-04-28T20:56:45.417Z,23.60
2023-04-28T20:59:12.466Z,23.10
2023-04-28T21:01:41.178Z,21.00
2023-04-28T21:04:08.704Z,18.92
2023-04-28T21:06:35.958Z,22.35
2023-04-28T21:09:03.199Z,22.77
2023-04-28T21:11:29.948Z,21.52
2023-04-28T21:13:57.503Z,22.33
2023-04-28T21:16:24.360Z,20.58
2023-04-28T21:18:55.681Z,18.73
2023-04-28T21:21:22.483Z,25.25
2023-04-28T21:23:49.815Z,22.85
2023-04-28T21:26:16.910Z,20.05
2023-04-28T21:28:44.123Z,17.33
2023-04-28T21:31:11.154Z,21.92
2023-04-28T21:33:38.193Z,22.63
2023-04-28T21:36:09.340Z,24.13
2023-04-28T21:38:38.128Z,24.75
2023-04-28T21:41:05.282Z,25.70
2023-04-28T21:43:32.399Z,24.95
2023-04-28T21:45:59.258Z,22.70
2023-04-28T21:48:26.444Z,16.58
2023-04-28T21:50:56.239Z,19.50
2023-04-28T21:53:23.460Z,14.75
2023-04-28T21:55:50.172Z,17.90
2023-04-28T21:58:17.198Z,15.98
2023-04-28T22:00:47.261Z,16.48
2023-04-28T22:03:15.444Z,14.82
2023-04-28T22:05:44.145Z,15.27
2023-04-28T22:08:11.531Z,14.20
2023-04-28T22:10:38.406Z,17.55
2023-04-28T22:13:06.645Z,15.60
2023-04-28T22:15:33.827Z,16.80
2023-04-28T22:18:01.087Z,15.45
2023-04-28T22:20:28.185Z,23.50
2023-04-28T22:22:55.451Z,17.45
2023-04-28T22:25:22.358Z,17.55
2023-04-28T22:27:49.717Z,16.05
2023-04-28T22:30:16.724Z,19.80
2023-04-28T22:32:47.589Z,18.95
2023-04-28T22:35:33.989Z,21.15
2023-04-28T22:38:01.373Z,21.60
2023-04-28T22:40:28.528Z,19.02
2023-04-28T22:42:55.838Z,19.15
2023-04-28T22:45:22.642Z,20.80
2023-04-28T22:47:49.817Z,17.67
2023-04-28T22:50:16.767Z,21.98
2023-04-28T22:52:43.796Z,28.10
2023-04-28T22:55:10.877Z,25.33
2023-04-28T22:57:37.870Z,22.25
2023-04-28T23:00:06.010Z,23.90
2023-04-28T23:02:33.485Z,22.08
2023-04-28T23:05:01.417Z,19.45
2023-04-28T23:07:28.565Z,44.53
2023-04-28T23:09:55.362Z,40.35
2023-04-28T23:12:22.436Z,29.00
2023-04-28T23:14:49.278Z,32.00
2023-04-28T23:17:16.625Z,27.25
2023-04-28T23:19:43.469Z,33.05
2023-04-28T23:22:10.570Z,29.05
2023-04-28T23:24:38.088Z,29.00
2023-04-28T23:27:05.836Z,20.58
2023-04-28T23:29:33.007Z,20.48
2023-04-28T23:32:00.149Z,21.25
2023-04-28T23:34:27.399Z,17.33
2023-04-28T23:36:54.840Z,15.63
2023-04-28T23:39:21.720Z,20.30
2023-04-28T23:41:48.800Z,15.65
2023-04-28T23:44:15.856Z,16.20
2023-04-28T23:46:43.406Z,20.67
2023-04-28T23:49:10.458Z,18.50
2023-04-28T23:51:37.625Z,17.08
2023-04-28T23:54:04.688Z,18.23
2023-04-28T23:56:32.016Z,19.63
2023-04-28T23:58:58.858Z,17.60
